ADDS METAR Data INFO
IDs: Format: Raw Decoded Include TAF

Data at: 0710 UTC 19 Oct 2017

KOFK 190656Z AUTO 00000KT 10SM CLR 04/02 A3005 RMK AO2 SLP176 T00440022
KOFK 190556Z AUTO 25003KT 10SM CLR 07/03 A3005 RMK AO2 SLP175 T00720028 10167 20050 402330050 58004
KOFK 190456Z AUTO 30003KT 10SM CLR 07/03 A3006 RMK AO2 SLP181 T00670033
KOFK 190356Z AUTO 25003KT 10SM CLR 08/03 A3006 RMK AO2 SLP180 T00830033
KOFK 190256Z AUTO 31003KT 10SM CLR 08/03 A3006 RMK AO2 SLP183 T00830033 53012
KOFK 190156Z AUTO 00000KT 10SM CLR 12/03 A3005 RMK AO2 SLP178 T01220033
KOFK 190056Z AUTO 34004KT 10SM CLR 14/03 A3003 RMK AO2 SLP170 T01390033
KOFK 182356Z AUTO 32006KT 10SM CLR 17/03 A3003 RMK AO2 SLP168 T01670033 10233 20167 53025
KOFK 182256Z AUTO 02009KT 10SM CLR 21/03 A2999 RMK AO2 SLP153 T02110028
KOFK 182156Z AUTO 01011KT 10SM CLR 23/03 A2997 RMK AO2 SLP146 T02280028
KOFK 182056Z AUTO 01015G21KT 10SM CLR 23/03 A2995 RMK AO2 SLP138 T02280028 53010
KOFK 181956Z AUTO 02016G20KT 10SM CLR 23/03 A2993 RMK AO2 SLP130 T02280028
KOFK 181856Z AUTO 36012KT 10SM CLR 22/03 A2992 RMK AO2 SLP126 T02220033
KOFK 181756Z AUTO 36014KT 10SM CLR 21/03 A2992 RMK AO2 SLP128 T02110028 10217 20100 53023
KOFK 181656Z AUTO 30008KT 10SM CLR 20/06 A2990 RMK AO2 SLP121 T02000056
KOFK 181556Z AUTO 21011KT 10SM CLR 17/08 A2987 RMK AO2 SLP111 T01670078
KOFK 181456Z AUTO 20008KT 10SM CLR 13/07 A2985 RMK AO2 SLP105 T01330072 55004
KOFK 181356Z AUTO 20010KT 10SM CLR 11/07 A2983 RMK AO2 SLP101 T01110067
KOFK 181256Z AUTO 18009KT 10SM CLR 10/07 A2982 RMK AO2 SLP098 T01000067
KOFK 181156Z AUTO 20007KT 10SM CLR 11/07 A2986 RMK AO2 SLP109 T01060067 10122 20083 55002
KOFK 181056Z AUTO 17006KT 10SM CLR 11/07 A2985 RMK AO2 SLP104 T01060067
KOFK 180956Z AUTO 19009KT 10SM CLR 11/07 A2986 RMK AO2 SLP105 T01060072
KOFK 180856Z AUTO 19006KT 10SM CLR 11/07 A2987 RMK AO2 SLP107 T01110072 58014
KOFK 180756Z AUTO 00000KT 10SM CLR 11/07 A2988 RMK AO2 SLP113 T01060067
KOFK 180656Z AUTO 00000KT 10SM CLR 10/07 A2989 RMK AO2 SLP118 T01000067
KOFK 180556Z AUTO 16007KT 10SM CLR 11/07 A2991 RMK AO2 SLP124 T01110072 10183 20111 402610011 58016
KOFK 180456Z AUTO 17009KT 10SM CLR 12/07 A2993 RMK AO2 SLP132 T01220072
KOFK 180356Z AUTO 17011KT 10SM CLR 15/07 A2994 RMK AO2 SLP137 T01500072
KOFK 180256Z AUTO 17011KT 10SM CLR 15/07 A2996 RMK AO2 SLP144 T01500072 50004
KOFK 180156Z AUTO 16010KT 10SM CLR 15/07 A2996 RMK AO2 SLP147 T01500067
KOFK 180056Z AUTO 17011KT 10SM CLR 18/04 A2996 RMK AO2 SLP147 T01780044
KOFK 172356Z AUTO 16009KT 10SM CLR 18/06 A2995 RMK AO2 SLP144 T01830056 10261 20183 56007
KOFK 172256Z AUTO 16007KT 10SM CLR 22/06 A2995 RMK AO2 SLP141 T02170056
KOFK 172156Z AUTO 15006KT 10SM CLR 26/02 A2995 RMK AO2 SLP138 T02560022
KOFK 172056Z AUTO 15004KT 10SM CLR 26/02 A2997 RMK AO2 SLP144 T02560017 56025
KOFK 171956Z AUTO 18004KT 10SM CLR 25/04 A2998 RMK AO2 SLP147 T02500039